Time;durP1;ratioP1;P1;durP2;ratioP2;P2;SDS_P1;SDS_P2;PMS_P1;PMS_P2;Temp;Humidity;BMP_temperature;BMP_pressure;BME280_temperature;BME280_humidity;BME280_pressure;Samples;Min_cycle;Max_cycle;Signal;HPM_P1;HPM_P2
2022/03/24 00:00:20;;;;;;;58.17;37.33;;;;;;;5.39;70.72;103190.59;5062566;28;20673;-72
2022/03/24 00:02:46;;;;;;;57.17;36.17;;;;;;;5.37;70.01;103184.53;5069554;28;20275;-71
2022/03/24 00:05:12;;;;;;;57.10;35.57;;;;;;;5.25;70.02;103183.56;5069666;28;20296;-72
2022/03/24 00:07:38;;;;;;;56.70;35.27;;;;;;;5.21;70.58;103188.31;5069629;28;20192;-72
2022/03/24 00:10:04;;;;;;;55.33;36.47;;;;;;;5.20;70.13;103182.34;5070801;28;20189;-72
2022/03/24 00:12:30;;;;;;;56.90;36.77;;;;;;;5.16;70.28;103182.84;5070817;28;20189;-72
2022/03/24 00:14:55;;;;;;;58.97;36.73;;;;;;;5.14;70.97;103179.31;5070627;28;20274;-72
2022/03/24 00:17:20;;;;;;;55.30;34.67;;;;;;;5.14;70.75;103179.31;5068857;28;20181;-72
2022/03/24 00:19:46;;;;;;;56.47;35.07;;;;;;;5.06;70.68;103182.03;5067876;28;20694;-72
2022/03/24 00:22:11;;;;;;;53.17;34.53;;;;;;;4.96;71.13;103175.34;5042201;28;20221;-72
2022/03/24 00:24:37;;;;;;;57.10;35.27;;;;;;;4.95;70.80;103175.22;5029253;28;20277;-71
2022/03/24 00:27:03;;;;;;;56.83;34.37;;;;;;;4.92;70.30;103173.31;5038694;28;20239;-72
2022/03/24 00:29:29;;;;;;;52.47;34.30;;;;;;;4.80;70.85;103176.53;5045542;28;20217;-72
2022/03/24 00:31:54;;;;;;;56.37;35.57;;;;;;;4.85;70.75;103178.69;5055104;28;20178;-72
2022/03/24 00:34:20;;;;;;;53.17;35.33;;;;;;;4.75;71.64;103170.22;5039926;28;20186;-72
2022/03/24 00:36:45;;;;;;;57.60;35.93;;;;;;;4.77;72.36;103171.22;5030395;28;20210;-72
2022/03/24 00:39:11;;;;;;;57.30;35.87;;;;;;;4.70;73.18;103169.81;5045945;28;20235;-71
2022/03/24 00:41:36;;;;;;;60.07;36.13;;;;;;;4.69;72.83;103174.81;5042273;28;20186;-71
2022/03/24 00:44:03;;;;;;;59.13;36.03;;;;;;;4.59;74.46;103170.63;5033826;28;20191;-71
2022/03/24 00:46:31;;;;;;;56.23;34.93;;;;;;;4.65;74.72;103170.25;5036549;28;20209;-72
2022/03/24 00:48:59;;;;;;;65.23;37.33;;;;;;;4.55;74.43;103166.06;5048591;28;20205;-72
2022/03/24 00:51:24;;;;;;;59.67;36.53;;;;;;;4.54;74.32;103165.94;5048917;28;20726;-72
2022/03/24 00:53:50;;;;;;;61.80;37.27;;;;;;;4.48;75.43;103157.84;5048789;28;20189;-71
2022/03/24 00:56:17;;;;;;;58.60;37.27;;;;;;;4.51;75.04;103158.09;5048576;28;20332;-71
2022/03/24 00:58:42;;;;;;;61.23;37.40;;;;;;;4.48;76.06;103157.84;5048412;28;20220;-71
2022/03/24 01:01:12;;;;;;;66.43;38.83;;;;;;;4.46;75.86;103152.66;5048661;28;20232;-72
2022/03/24 01:03:38;;;;;;;69.53;41.07;;;;;;;4.39;75.97;103159.66;5048588;28;20200;-72
2022/03/24 01:06:04;;;;;;;69.30;39.67;;;;;;;4.38;75.79;103152.81;5048327;28;20255;-72
2022/03/24 01:08:31;;;;;;;67.93;39.53;;;;;;;4.28;75.48;103143.56;5048309;28;20222;-72
2022/03/24 01:10:56;;;;;;;67.50;39.47;;;;;;;4.26;75.06;103144.19;5049836;28;20726;-72
2022/03/24 01:13:22;;;;;;;62.93;38.47;;;;;;;4.18;75.32;103145.25;5049670;28;20181;-72
2022/03/24 01:15:49;;;;;;;66.57;39.73;;;;;;;4.13;75.65;103146.47;5048186;28;20201;-72
2022/03/24 01:18:16;;;;;;;68.00;38.47;;;;;;;4.07;76.16;103140.91;5019196;28;20596;-72
2022/03/24 01:20:41;;;;;;;60.33;36.67;;;;;;;4.06;75.30;103139.16;5030807;28;20198;-72
2022/03/24 01:23:07;;;;;;;62.07;38.03;;;;;;;4.01;74.99;103132.81;5036542;28;20200;-72
2022/03/24 01:25:33;;;;;;;59.87;36.23;;;;;;;3.95;74.46;103140.81;5048384;28;20210;-71
2022/03/24 01:27:59;;;;;;;62.70;36.43;;;;;;;3.90;75.39;103139.53;5049610;28;20209;-72
2022/03/24 01:30:24;;;;;;;57.97;35.83;;;;;;;3.79;74.64;103140.31;5046659;28;20177;-72
2022/03/24 01:32:50;;;;;;;59.70;36.57;;;;;;;3.78;74.19;103143.56;5037038;28;20602;-72
2022/03/24 01:35:16;;;;;;;61.50;36.47;;;;;;;3.78;74.52;103148.66;5039644;28;20201;-72
2022/03/24 01:37:42;;;;;;;58.17;36.47;;;;;;;3.72;75.37;103148.16;5047588;28;20823;-72
2022/03/24 01:40:10;;;;;;;61.10;35.43;;;;;;;3.74;74.58;103146.66;5047571;28;20192;-71
2022/03/24 01:42:37;;;;;;;61.70;37.43;;;;;;;3.73;74.67;103144.84;5042417;28;20276;-71
2022/03/24 01:45:04;;;;;;;63.77;38.53;;;;;;;3.73;73.84;103142.31;5028397;28;20202;-71
2022/03/24 01:47:29;;;;;;;63.13;37.70;;;;;;;3.73;74.23;103146.50;5045673;28;20672;-71
2022/03/24 01:49:58;;;;;;;68.37;39.17;;;;;;;3.60;75.03;103141.19;5029084;28;20329;-71
2022/03/24 01:52:26;;;;;;;65.60;38.77;;;;;;;3.62;74.94;103143.06;5032202;28;20182;-71
2022/03/24 01:54:56;;;;;;;62.10;37.47;;;;;;;3.63;74.88;103141.44;5044902;28;20289;-71
2022/03/24 01:57:23;;;;;;;61.87;36.90;;;;;;;3.57;75.54;103134.22;5039359;28;20918;-72
2022/03/24 01:59:49;;;;;;;68.80;40.30;;;;;;;3.57;75.38;103136.75;5047302;28;20174;-71
2022/03/24 02:02:16;;;;;;;68.73;40.33;;;;;;;3.56;75.56;103142.56;5047490;28;20268;-71
2022/03/24 02:04:42;;;;;;;67.13;39.50;;;;;;;3.51;77.59;103140.41;5047635;28;20813;-71
2022/03/24 02:07:08;;;;;;;66.83;38.57;;;;;;;3.55;77.75;103139.91;5045859;28;20224;-71
2022/03/24 02:09:35;;;;;;;65.13;38.93;;;;;;;3.49;76.74;103135.19;5039948;28;20248;-71
2022/03/24 02:12:04;;;;;;;67.67;38.53;;;;;;;3.46;76.58;103134.97;5051733;28;20219;-72
2022/03/24 02:14:29;;;;;;;64.90;39.27;;;;;;;3.38;76.76;103133.44;5049198;28;20179;-71
2022/03/24 02:16:55;;;;;;;62.73;36.97;;;;;;;3.37;76.08;103130.75;5044473;28;20220;-72
2022/03/24 02:19:24;;;;;;;64.47;38.43;;;;;;;3.31;76.00;103122.66;5037987;28;20186;-73
2022/03/24 02:21:52;;;;;;;67.80;37.67;;;;;;;3.22;76.76;103127.81;5049939;28;20196;-72
2022/03/24 02:24:20;;;;;;;61.83;37.07;;;;;;;3.21;77.63;103128.56;5037742;28;20186;-73
2022/03/24 02:26:47;;;;;;;62.03;38.07;;;;;;;3.22;77.31;103125.28;5028932;28;20210;-71
2022/03/24 02:29:14;;;;;;;61.57;36.20;;;;;;;3.24;76.89;103125.41;5028861;28;20226;-72
2022/03/24 02:31:43;;;;;;;59.53;35.90;;;;;;;3.17;75.97;103136.66;5040826;28;20682;-72
2022/03/24 02:36:55;;;;;;;65.33;37.43;;;;;;;3.04;76.26;103140.53;5028829;28;20206;-72
2022/03/24 02:39:21;;;;;;;62.73;38.17;;;;;;;3.03;76.26;103133.72;5036560;28;20170;-72
2022/03/24 02:41:52;;;;;;;68.60;38.23;;;;;;;2.99;75.56;103134.22;5042647;28;20196;-72
2022/03/24 02:44:22;;;;;;;62.87;36.93;;;;;;;2.99;75.95;103139.25;5032842;28;20190;-72
2022/03/24 02:46:49;;;;;;;62.17;36.80;;;;;;;2.93;76.88;103126.06;5032478;28;20210;-72
2022/03/24 02:49:15;;;;;;;62.90;35.87;;;;;;;2.92;76.58;103131.88;5032116;28;20210;-72
2022/03/24 02:51:41;;;;;;;59.17;35.90;;;;;;;2.88;76.13;103133.28;5045019;28;20209;-72
2022/03/24 02:54:07;;;;;;;61.47;36.43;;;;;;;2.89;76.68;103129.13;5036433;28;20190;-72
2022/03/24 02:56:33;;;;;;;61.67;35.33;;;;;;;2.84;75.75;103131.22;5032281;28;20624;-72
2022/03/24 02:58:58;;;;;;;58.60;35.27;;;;;;;2.75;76.31;103129.56;5032187;28;20187;-72
2022/03/24 03:01:25;;;;;;;57.27;35.17;;;;;;;2.75;76.31;103129.56;5032314;28;20190;-72
2022/03/24 03:03:52;;;;;;;61.23;36.17;;;;;;;2.72;76.77;103129.28;5038797;28;20561;-72
2022/03/24 03:06:19;;;;;;;57.83;34.57;;;;;;;2.64;76.54;103136.22;5040956;28;20214;-72
2022/03/24 03:08:49;;;;;;;58.17;33.77;;;;;;;2.65;76.56;103132.91;5032060;28;20221;-72
2022/03/24 03:11:20;;;;;;;58.80;34.40;;;;;;;2.59;76.32;103134.91;5033223;28;20182;-72
2022/03/24 03:13:46;;;;;;;62.50;37.37;;;;;;;2.56;77.06;103129.59;5032179;28;20686;-72
2022/03/24 03:16:12;;;;;;;53.53;32.67;;;;;;;2.57;76.92;103138.06;5032254;28;20207;-72
2022/03/24 03:18:39;;;;;;;62.23;36.40;;;;;;;2.56;77.15;103129.59;5051661;28;20197;-72
2022/03/24 03:21:04;;;;;;;58.20;35.33;;;;;;;2.56;76.62;103136.25;5042357;28;20273;-72
2022/03/24 03:23:30;;;;;;;63.23;36.57;;;;;;;2.53;77.04;103134.34;5044854;28;20893;-72
2022/03/24 03:25:56;;;;;;;65.00;37.33;;;;;;;2.48;78.60;103135.59;5030447;28;20210;-72
2022/03/24 03:28:22;;;;;;;59.63;35.70;;;;;;;2.50;78.05;103130.69;5031459;28;20729;-72
2022/03/24 03:30:47;;;;;;;64.23;37.87;;;;;;;2.51;78.04;103130.81;5032163;28;20186;-72
2022/03/24 03:33:13;;;;;;;67.30;37.97;;;;;;;2.46;78.45;103138.75;5051421;28;20181;-72
2022/03/24 03:35:39;;;;;;;61.87;37.23;;;;;;;2.36;79.26;103132.00;5051476;28;20263;-72
2022/03/24 03:38:04;;;;;;;64.47;37.43;;;;;;;2.37;78.59;103135.41;5049101;28;20253;-72
2022/03/24 03:40:30;;;;;;;63.57;37.40;;;;;;;2.40;78.70;103138.22;5050250;28;20602;-72
2022/03/24 03:42:55;;;;;;;62.30;38.03;;;;;;;2.32;79.44;103136.63;5047522;28;20638;-72
2022/03/24 03:45:21;;;;;;;69.10;37.80;;;;;;;2.29;78.98;103134.72;5031219;28;20213;-72
2022/03/24 03:47:46;;;;;;;70.07;40.30;;;;;;;2.27;79.17;103128.66;5039815;28;20240;-72
2022/03/24 03:50:12;;;;;;;68.13;39.53;;;;;;;2.22;80.06;103129.00;5050254;28;20194;-72
2022/03/24 03:52:37;;;;;;;67.63;38.40;;;;;;;2.21;78.55;103130.63;5033086;28;20272;-72
2022/03/24 03:55:03;;;;;;;66.00;38.50;;;;;;;2.17;78.67;103125.19;5032580;28;20206;-72
2022/03/24 03:57:29;;;;;;;70.77;40.67;;;;;;;2.17;79.29;103125.19;5031013;28;20190;-72
2022/03/24 03:59:54;;;;;;;71.67;41.40;;;;;;;2.13;79.96;103131.59;5029854;28;20810;-72
2022/03/24 04:02:19;;;;;;;73.13;41.03;;;;;;;2.12;80.08;103131.47;5031366;28;20656;-72
2022/03/24 04:04:45;;;;;;;70.93;40.87;;;;;;;2.09;80.69;103127.03;5031076;28;20682;-72
2022/03/24 04:07:11;;;;;;;72.30;41.10;;;;;;;2.07;80.46;103122.59;5030425;28;20198;-72
2022/03/24 04:09:37;;;;;;;70.50;39.03;;;;;;;2.00;79.81;103125.31;5029470;28;20263;-72
2022/03/24 04:12:03;;;;;;;68.17;39.90;;;;;;;2.00;79.52;103127.81;5055852;28;20629;-72
2022/03/24 04:14:28;;;;;;;69.87;40.67;;;;;;;1.97;78.99;103138.53;5060608;28;20220;-72
2022/03/24 04:16:57;;;;;;;75.53;41.13;;;;;;;2.00;79.60;103130.34;5051466;28;20297;-72
2022/03/24 04:19:24;;;;;;;73.00;42.37;;;;;;;1.94;79.65;103127.28;5030964;28;20863;-72
2022/03/24 04:21:49;;;;;;;73.43;41.63;;;;;;;1.98;79.32;103132.72;5039744;28;20186;-71
2022/03/24 04:24:14;;;;;;;69.80;40.37;;;;;;;1.90;79.47;103132.81;5030512;28;20320;-72
2022/03/24 04:26:40;;;;;;;72.87;41.07;;;;;;;1.90;80.38;103135.34;5035129;28;20206;-72
2022/03/24 04:29:05;;;;;;;74.53;41.67;;;;;;;1.86;80.72;103129.13;5049319;28;20304;-72
2022/03/24 04:31:31;;;;;;;74.20;41.80;;;;;;;1.84;81.09;103135.66;5030762;28;20259;-72
2022/03/24 04:33:57;;;;;;;78.20;39.90;;;;;;;1.84;81.11;103137.31;5030322;28;20228;-72
2022/03/24 04:36:22;;;;;;;86.17;45.30;;;;;;;1.79;81.38;103134.34;5028969;28;20218;-72
2022/03/24 04:38:48;;;;;;;75.93;43.03;;;;;;;1.82;81.15;103136.25;5029995;28;20558;-72
2022/03/24 04:41:14;;;;;;;77.30;43.07;;;;;;;1.84;81.43;103130.59;5012633;28;20183;-72
2022/03/24 04:43:40;;;;;;;78.50;45.40;;;;;;;1.80;81.70;103128.56;5029955;28;20262;-72
2022/03/24 04:46:05;;;;;;;80.47;44.57;;;;;;;1.80;82.38;103127.69;5030251;28;20210;-72
2022/03/24 04:48:36;;;;;;;79.90;43.50;;;;;;;1.82;82.17;103134.63;5048767;28;20209;-72
2022/03/24 04:51:06;;;;;;;76.77;42.83;;;;;;;1.79;82.34;103134.34;5040420;28;20209;-72
2022/03/24 04:53:32;;;;;;;80.43;43.00;;;;;;;1.75;81.81;103133.94;5030016;28;20191;-72
2022/03/24 04:55:58;;;;;;;76.50;42.00;;;;;;;1.63;82.06;103132.81;5046340;28;20218;-72
2022/03/24 04:58:23;;;;;;;76.20;41.60;;;;;;;1.61;81.62;103129.28;5049692;28;20272;-71
2022/03/24 05:00:48;;;;;;;73.20;41.57;;;;;;;1.60;80.88;103130.91;5048511;28;20268;-71
2022/03/24 05:03:14;;;;;;;76.37;41.70;;;;;;;1.62;81.12;103124.38;5031936;28;20706;-71
2022/03/24 05:05:39;;;;;;;76.03;40.47;;;;;;;1.55;81.30;103123.66;5029423;28;20576;-72
2022/03/24 05:08:06;;;;;;;75.77;42.10;;;;;;;1.53;80.49;103126.06;5039530;28;20279;-72
2022/03/24 05:10:31;;;;;;;73.73;41.63;;;;;;;1.55;81.14;103126.19;5049172;28;20924;-71
2022/03/24 05:12:57;;;;;;;70.93;40.07;;;;;;;1.52;80.65;103130.97;5048527;28;20186;-71
2022/03/24 05:15:23;;;;;;;69.47;39.37;;;;;;;1.46;81.25;103138.84;5049712;28;20205;-72
2022/03/24 05:17:50;;;;;;;68.43;39.33;;;;;;;1.51;80.78;103136.75;5048040;28;20196;-71
2022/03/24 05:20:15;;;;;;;75.40;38.97;;;;;;;1.51;80.27;103136.75;5047496;28;20440;-71
2022/03/24 05:22:41;;;;;;;68.47;40.00;;;;;;;1.50;80.46;103137.50;5047796;28;20448;-71
2022/03/24 05:25:07;;;;;;;71.47;41.10;;;;;;;1.48;80.81;103132.31;5032291;28;20264;-72
2022/03/24 05:27:33;;;;;;;65.27;38.33;;;;;;;1.49;80.46;103128.16;5033630;28;20198;-72
2022/03/24 05:29:58;;;;;;;68.37;37.53;;;;;;;1.48;79.60;103131.44;5047995;28;20481;-71
2022/03/24 05:32:24;;;;;;;68.97;38.93;;;;;;;1.45;79.75;103123.56;5048387;28;20186;-71
2022/03/24 05:34:49;;;;;;;72.07;39.70;;;;;;;1.46;80.13;103130.41;5049551;28;20327;-72
2022/03/24 05:37:15;;;;;;;72.17;40.80;;;;;;;1.54;80.07;103134.50;5048089;28;20191;-72
2022/03/24 05:39:42;;;;;;;69.73;40.53;;;;;;;1.58;80.07;103126.47;5048030;28;20181;-71
2022/03/24 05:42:08;;;;;;;68.67;39.87;;;;;;;1.60;80.58;103128.38;5049306;28;20722;-71
2022/03/24 05:44:34;;;;;;;72.57;40.73;;;;;;;1.63;80.25;103127.78;5047981;28;20284;-72
2022/03/24 05:46:59;;;;;;;67.27;39.97;;;;;;;1.65;80.00;103136.38;5049419;28;20589;-71
2022/03/24 05:49:26;;;;;;;70.37;40.13;;;;;;;1.66;80.30;103136.50;5047565;28;20256;-71
2022/03/24 05:52:11;;;;;;;71.53;40.70;;;;;;;1.73;80.97;103136.34;5049502;28;20603;-72
2022/03/24 05:54:37;;;;;;;72.80;40.63;;;;;;;1.83;80.77;103136.41;5049182;28;20194;-72
2022/03/24 05:57:03;;;;;;;75.37;40.40;;;;;;;1.87;81.14;103137.56;5047919;28;20284;-71
2022/03/24 05:59:28;;;;;;;72.37;41.30;;;;;;;1.95;80.45;103144.22;5049080;28;20197;-72
2022/03/24 06:01:54;;;;;;;71.00;39.63;;;;;;;2.03;81.15;103140.75;5049192;28;20181;-72
2022/03/24 06:04:21;;;;;;;71.70;40.37;;;;;;;2.11;80.04;103137.28;5047888;28;20216;-72
2022/03/24 06:06:47;;;;;;;73.30;42.00;;;;;;;2.19;80.94;103144.78;5048979;28;20202;-72
2022/03/24 06:09:12;;;;;;;73.73;42.67;;;;;;;2.27;81.03;103143.81;5048800;28;20267;-71
2022/03/24 06:11:39;;;;;;;82.37;44.80;;;;;;;2.37;80.63;103148.94;5047799;28;20185;-71
2022/03/24 06:14:07;;;;;;;80.33;44.57;;;;;;;2.49;81.56;103151.66;5047711;28;20201;-72
2022/03/24 06:16:34;;;;;;;79.47;44.37;;;;;;;2.58;82.82;103148.28;5057111;28;20213;-72
2022/03/24 06:19:00;;;;;;;82.20;46.07;;;;;;;2.72;83.25;103147.84;5066959;28;20683;-72
2022/03/24 06:21:25;;;;;;;82.40;44.43;;;;;;;2.83;83.33;103149.69;5063464;28;20204;-72
2022/03/24 06:23:51;;;;;;;84.43;45.60;;;;;;;2.93;83.32;103143.78;5052197;28;20193;-72
2022/03/24 06:26:19;;;;;;;75.70;43.57;;;;;;;3.08;82.13;103147.66;5052979;28;20206;-72
2022/03/24 06:28:44;;;;;;;79.97;44.60;;;;;;;3.21;84.02;103142.84;5052551;28;20217;-72
2022/03/24 06:31:11;;;;;;;89.70;48.83;;;;;;;3.36;83.89;103152.66;5052778;28;20246;-72
2022/03/24 06:33:37;;;;;;;91.43;48.87;;;;;;;3.49;83.51;103152.94;5051264;28;20178;-72
2022/03/24 06:36:02;;;;;;;88.50;47.03;;;;;;;3.65;83.67;103152.56;5044619;28;20217;-72
2022/03/24 06:38:27;;;;;;;76.10;45.70;;;;;;;3.87;82.85;103156.16;5031282;28;20178;-72
2022/03/24 06:40:53;;;;;;;84.43;47.10;;;;;;;4.02;82.59;103157.41;5044469;28;20193;-72
2022/03/24 06:43:18;;;;;;;87.97;49.37;;;;;;;4.12;82.05;103157.38;5051345;28;20705;-72
2022/03/24 06:45:43;;;;;;;84.57;47.77;;;;;;;4.31;81.56;103156.50;5052539;28;20678;-71
2022/03/24 06:48:09;;;;;;;82.40;47.47;;;;;;;4.55;80.71;103152.53;5052939;28;20525;-72
2022/03/24 06:50:35;;;;;;;82.97;46.90;;;;;;;4.56;80.29;103152.63;5052246;28;20315;-72
2022/03/24 06:53:02;;;;;;;82.83;46.30;;;;;;;4.65;80.19;103155.88;5052611;28;20421;-72
2022/03/24 06:55:27;;;;;;;80.50;45.83;;;;;;;4.90;80.05;103157.09;5051094;28;20208;-72
2022/03/24 06:57:53;;;;;;;74.10;44.93;;;;;;;5.17;78.54;103154.19;5052351;28;20557;-72
2022/03/24 07:00:18;;;;;;;70.87;44.40;;;;;;;5.20;78.44;103151.00;5067323;28;20248;-72
2022/03/24 07:02:45;;;;;;;75.20;45.63;;;;;;;5.40;77.46;103154.31;5050909;28;20535;-72
2022/03/24 07:05:12;;;;;;;67.53;42.37;;;;;;;5.57;77.03;103153.91;5051902;28;20209;-72
2022/03/24 07:07:38;;;;;;;66.73;43.30;;;;;;;5.85;75.65;103156.94;5052008;28;20639;-72
2022/03/24 07:10:05;;;;;;;74.47;44.73;;;;;;;6.03;75.38;103155.78;5048699;28;20293;-72
2022/03/24 07:12:30;;;;;;;67.27;41.83;;;;;;;6.16;73.82;103164.41;5048929;28;20831;-72
2022/03/24 07:14:55;;;;;;;69.50;41.77;;;;;;;6.41;72.77;103155.25;5051753;28;20362;-72
2022/03/24 07:17:21;;;;;;;68.73;43.07;;;;;;;6.49;72.47;103161.78;5059242;28;20212;-72
2022/03/24 07:19:47;;;;;;;67.90;42.57;;;;;;;6.71;71.68;103160.03;5071708;28;20268;-72
2022/03/24 07:22:13;;;;;;;66.27;42.30;;;;;;;6.79;71.66;103161.47;5055181;28;20707;-72
2022/03/24 07:24:39;;;;;;;63.63;40.57;;;;;;;7.09;70.56;103156.00;5051833;28;20181;-72
2022/03/24 07:27:04;;;;;;;63.77;39.70;;;;;;;7.37;69.54;103164.78;5049386;28;20560;-73
2022/03/24 07:29:30;;;;;;;62.23;41.33;;;;;;;7.28;69.57;103161.59;5048490;28;20601;-72
2022/03/24 07:31:55;;;;;;;65.43;40.23;;;;;;;7.58;69.73;103162.81;5050274;28;20272;-72
2022/03/24 07:34:20;;;;;;;64.97;40.27;;;;;;;7.88;67.60;103155.56;5051506;28;20193;-72
2022/03/24 07:36:46;;;;;;;59.03;39.70;;;;;;;7.66;67.62;103159.13;5051559;28;20251;-72
2022/03/24 07:39:12;;;;;;;64.20;41.17;;;;;;;7.75;67.89;103160.66;5051395;28;20319;-72
2022/03/24 07:41:37;;;;;;;59.67;39.53;;;;;;;8.03;65.93;103160.84;5051481;28;20198;-72
2022/03/24 07:44:03;;;;;;;61.27;39.03;;;;;;;8.43;65.33;103155.91;5051381;28;20190;-72
2022/03/24 07:46:29;;;;;;;58.07;39.63;;;;;;;8.75;64.07;103166.53;5049942;28;20556;-72
2022/03/24 07:48:54;;;;;;;61.53;38.43;;;;;;;8.92;63.86;103162.50;5051046;28;20218;-72
2022/03/24 07:51:20;;;;;;;61.20;39.80;;;;;;;9.08;63.03;103158.44;5050087;28;20212;-72
2022/03/24 07:53:48;;;;;;;58.33;40.80;;;;;;;9.33;63.88;103158.28;5051343;28;20186;-73
2022/03/24 07:56:14;;;;;;;53.70;38.83;;;;;;;9.53;62.67;103157.81;5049920;28;20197;-72
2022/03/24 07:58:40;;;;;;;57.20;38.00;;;;;;;9.56;61.04;103152.91;5051025;28;20204;-73
2022/03/24 08:01:06;;;;;;;58.17;38.80;;;;;;;10.00;60.67;103148.75;5051289;28;20186;-72
2022/03/24 08:03:32;;;;;;;54.33;37.30;;;;;;;10.24;59.38;103145.09;5051375;28;20670;-73
2022/03/24 08:05:57;;;;;;;50.30;33.90;;;;;;;10.24;57.79;103155.34;5050157;28;20210;-72
2022/03/24 08:08:23;;;;;;;50.43;35.47;;;;;;;10.03;56.23;103154.03;5049808;28;20216;-73
2022/03/24 08:10:50;;;;;;;54.73;37.23;;;;;;;10.21;56.16;103145.81;5051106;28;20695;-72
2022/03/24 08:13:17;;;;;;;53.40;35.83;;;;;;;10.73;54.77;103144.53;5050962;28;20265;-72
2022/03/24 08:15:44;;;;;;;48.97;34.73;;;;;;;10.62;55.33;103140.47;5052022;28;20282;-73
2022/03/24 08:18:10;;;;;;;49.37;35.00;;;;;;;11.07;54.42;103148.13;5062426;28;20242;-72
2022/03/24 08:20:37;;;;;;;50.63;35.07;;;;;;;11.40;54.50;103148.25;5066390;28;20197;-72
2022/03/24 08:23:03;;;;;;;50.23;34.17;;;;;;;11.34;53.89;103157.31;5049611;28;20255;-73
2022/03/24 08:25:30;;;;;;;45.63;33.53;;;;;;;11.36;53.17;103153.13;5050746;28;20210;-72
2022/03/24 08:27:56;;;;;;;47.50;35.10;;;;;;;11.76;54.27;103157.88;5050634;28;20189;-74
2022/03/24 08:30:22;;;;;;;48.87;35.60;;;;;;;12.22;53.07;103149.13;5050340;28;20200;-74
2022/03/24 08:32:47;;;;;;;48.90;34.77;;;;;;;12.14;51.91;103154.69;5035940;28;21038;-72
2022/03/24 08:35:14;;;;;;;48.57;34.47;;;;;;;12.38;50.17;103153.34;5032185;28;20229;-72
2022/03/24 08:37:39;;;;;;;50.37;34.63;;;;;;;12.23;49.69;103144.88;5043412;28;20186;-72
2022/03/24 08:40:06;;;;;;;47.37;33.30;;;;;;;12.48;48.83;103152.97;5040731;28;20190;-72
2022/03/24 08:42:31;;;;;;;42.00;31.43;;;;;;;12.51;48.15;103151.47;5049990;28;20254;-71
2022/03/24 08:44:56;;;;;;;45.20;32.20;;;;;;;12.60;47.96;103149.34;5049149;28;20213;-72
2022/03/24 08:47:22;;;;;;;49.37;33.60;;;;;;;13.14;47.05;103143.34;5048774;28;20185;-72
2022/03/24 08:49:48;;;;;;;46.50;33.17;;;;;;;13.35;45.89;103151.16;5046927;28;20217;-72
2022/03/24 08:52:13;;;;;;;46.43;34.43;;;;;;;13.96;46.27;103153.94;5029987;28;20656;-72
2022/03/24 08:54:39;;;;;;;46.10;33.23;;;;;;;14.21;45.86;103150.69;5029877;28;20175;-72
2022/03/24 08:57:04;;;;;;;45.73;33.33;;;;;;;14.37;45.40;103140.22;5027996;28;20245;-73
2022/03/24 08:59:30;;;;;;;45.40;32.93;;;;;;;14.44;45.20;103142.22;5029363;28;20186;-72
2022/03/24 09:01:57;;;;;;;43.60;33.77;;;;;;;14.63;44.63;103144.72;5028898;28;20217;-72
2022/03/24 09:04:26;;;;;;;44.33;33.93;;;;;;;15.12;42.46;103141.53;5027893;28;20268;-72
2022/03/24 09:06:52;;;;;;;44.40;31.97;;;;;;;14.89;43.50;103141.47;5030844;28;20268;-71
2022/03/24 09:09:18;;;;;;;42.60;31.40;;;;;;;15.35;42.00;103142.41;5049529;28;20198;-72
2022/03/24 09:11:44;;;;;;;44.23;32.00;;;;;;;15.04;42.34;103145.50;5049668;28;20181;-71
2022/03/24 09:14:10;;;;;;;42.30;31.70;;;;;;;15.20;42.14;103145.25;5048084;28;20188;-71
2022/03/24 09:16:35;;;;;;;43.57;32.67;;;;;;;15.47;41.53;103141.16;5055426;28;20217;-71
2022/03/24 09:19:01;;;;;;;42.87;31.20;;;;;;;15.11;41.68;103146.63;5063572;28;20677;-71
2022/03/24 09:21:27;;;;;;;42.93;31.93;;;;;;;15.94;40.35;103141.13;5060241;28;20200;-71
2022/03/24 09:23:52;;;;;;;40.80;29.40;;;;;;;15.71;38.28;103147.19;5049689;28;20666;-71
2022/03/24 09:26:19;;;;;;;48.00;32.40;;;;;;;15.63;40.22;103146.06;5049450;28;20205;-71
2022/03/24 09:28:46;;;;;;;43.67;31.37;;;;;;;16.30;38.53;103146.66;5049075;28;20712;-71
2022/03/24 09:31:12;;;;;;;40.77;30.53;;;;;;;17.13;37.86;103145.03;5049376;28;20200;-72
2022/03/24 09:33:38;;;;;;;39.50;31.60;;;;;;;17.97;36.05;103134.50;5049167;28;20189;-72
2022/03/24 09:36:03;;;;;;;41.03;31.80;;;;;;;22.42;30.13;103113.59;5040759;28;20316;-72
2022/03/24 09:38:28;;;;;;;38.10;31.73;;;;;;;24.09;26.07;103118.69;5049886;28;20212;-72
2022/03/24 09:40:54;;;;;;;37.90;31.65;;;;;;;25.39;24.66;103117.56;5047970;28;20186;-72
2022/03/24 09:43:20;;;;;;;37.13;32.13;;;;;;;26.94;23.30;103104.00;5029865;28;20209;-72
2022/03/24 09:45:47;;;;;;;38.40;33.20;;;;;;;27.06;22.07;103109.09;5028423;28;20210;-72
2022/03/24 09:48:15;;;;;;;36.15;32.25;;;;;;;28.17;20.63;103096.97;5027984;28;20222;-72
2022/03/24 09:50:43;;;;;;;34.75;31.15;;;;;;;26.85;21.49;103099.72;5032324;28;20186;-72
2022/03/24 09:53:08;;;;;;;36.25;32.35;;;;;;;26.89;21.92;103100.56;5035955;28;20256;-72
2022/03/24 09:55:36;;;;;;;37.20;32.67;;;;;;;26.12;22.15;103111.84;5035728;28;20235;-72
2022/03/24 09:58:03;;;;;;;36.47;32.17;;;;;;;29.24;19.51;103091.38;5035786;28;20225;-72
2022/03/24 10:00:29;;;;;;;33.38;28.58;;;;;;;30.13;17.93;103087.50;5035613;28;20910;-72
2022/03/24 10:03:16;;;;;;;33.50;29.75;;;;;;;29.58;18.77;103094.16;5035705;28;20213;-72
2022/03/24 10:05:54;;;;;;;33.15;29.52;;;;;;;29.74;18.35;103093.75;5034318;28;20578;-72
2022/03/24 10:08:19;;;;;;;32.30;28.88;;;;;;;30.16;19.08;103094.50;5034380;28;20210;-72
2022/03/24 10:10:44;;;;;;;35.10;30.33;;;;;;;29.98;18.22;103089.66;5035608;28;20289;-72
2022/03/24 10:13:10;;;;;;;32.75;29.00;;;;;;;30.82;17.07;103089.16;5035561;28;20579;-72
2022/03/24 10:15:38;;;;;;;33.40;29.85;;;;;;;29.65;18.34;103099.25;5040564;28;20290;-72
2022/03/24 10:18:04;;;;;;;34.35;29.55;;;;;;;31.27;17.47;103090.50;5067270;28;20196;-72
2022/03/24 10:20:30;;;;;;;32.15;28.75;;;;;;;32.38;17.38;103085.03;5073473;28;20192;-72
2022/03/24 10:22:57;;;;;;;34.55;30.88;;;;;;;33.59;15.16;103075.97;5055558;28;20185;-72
2022/03/24 10:25:25;;;;;;;33.13;28.70;;;;;;;33.04;15.88;103093.19;5054175;28;20230;-72
2022/03/24 10:28:17;;;;;;;34.05;30.27;;;;;;;33.76;15.76;103081.47;5048931;28;20170;-72
2022/03/24 10:30:58;;;;;;;32.45;29.02;;;;;;;33.68;15.88;103083.56;5035555;28;20182;-72
2022/03/24 10:33:32;;;;;;;33.20;29.73;;;;;;;31.24;16.39;103094.09;5035820;28;20182;-72
2022/03/24 10:36:04;;;;;;;34.35;29.77;;;;;;;29.60;17.45;103089.69;5032003;28;20251;-72
2022/03/24 10:38:33;;;;;;;34.70;30.55;;;;;;;31.82;16.76;103088.75;5035381;28;20525;-72
2022/03/24 10:41:24;;;;;;;33.70;30.08;;;;;;;32.51;15.70;103081.00;5036739;28;20651;-72
2022/03/24 10:43:53;;;;;;;34.15;29.20;;;;;;;31.58;16.79;103078.88;5055314;28;20201;-72
2022/03/24 10:46:23;;;;;;;33.85;30.25;;;;;;;31.17;16.80;103083.72;5053926;28;20244;-71
2022/03/24 10:48:50;;;;;;;32.63;29.08;;;;;;;31.61;15.91;103078.78;5054945;28;20189;-72
2022/03/24 10:51:22;;;;;;;31.77;26.92;;;;;;;33.26;15.25;103067.53;5055284;28;20194;-72
2022/03/24 10:53:48;;;;;;;35.10;29.17;;;;;;;32.13;15.61;103080.63;5055305;28;20701;-72
2022/03/24 10:56:16;;;;;;;34.35;28.17;;;;;;;32.20;15.32;103072.38;5055155;28;20213;-72
2022/03/24 10:58:47;;;;;;;34.67;27.10;;;;;;;33.35;14.96;103059.22;5053586;28;20304;-72
2022/03/24 11:01:16;;;;;;;34.50;28.33;;;;;;;33.18;14.93;103060.78;5054595;28;20261;-72
2022/03/24 11:03:43;;;;;;;36.55;27.40;;;;;;;29.72;17.34;103070.91;5040860;28;20206;-72
2022/03/24 11:06:13;;;;;;;38.70;29.57;;;;;;;26.37;19.65;103080.94;5032020;28;20757;-72
2022/03/24 11:08:40;;;;;;;35.30;27.93;;;;;;;25.87;20.96;103083.97;5032115;28;20182;-72
2022/03/24 11:11:08;;;;;;;33.93;26.60;;;;;;;25.26;21.76;103087.88;5030555;28;20264;-72
2022/03/24 11:13:42;;;;;;;31.60;25.60;;;;;;;25.23;22.46;103076.50;5031738;28;20194;-72